Terminal Aerodrome Forecast
Issued by NWS

Home | Current Version | Previous Version | Graphics & Text | Print | Product List | Glossary On
Versions: 1 2 3 4 5 6 7 8 9 10 11 12 13 14 15 16 17 18 19 20
000
FTUS43 KGRB 180500
TAFCWA
TAF
KCWA 180520Z 1806/1906 27011G19KT P6SM SCT025 SCT060
     FM181500 27014G21KT P6SM SCT025 BKN035
     FM182200 25006KT P6SM SCT030 SCT050
      AMD LTD TO CLD VIS AND WIND TIL 181200=

USA.gov is the U.S. government's official web portal to all federal, state and local government web resources and services.